createdAt,value
2019-02-18T00:01:48.083Z,21.37
2019-02-18T00:04:15.387Z,24.43
2019-02-18T00:06:42.648Z,23.97
2019-02-18T00:09:10.008Z,24.30
2019-02-18T00:11:37.259Z,21.97
2019-02-18T00:14:04.560Z,22.20
2019-02-18T00:16:31.923Z,22.50
2019-02-18T00:18:59.175Z,22.37
2019-02-18T00:21:26.411Z,23.03
2019-02-18T00:23:53.657Z,22.73
2019-02-18T00:26:20.884Z,19.67
2019-02-18T00:28:48.114Z,25.47
2019-02-18T00:31:15.372Z,20.87
2019-02-18T00:33:42.608Z,23.67
2019-02-18T00:36:09.888Z,25.23
2019-02-18T00:38:37.143Z,29.37
2019-02-18T00:41:04.387Z,26.07
2019-02-18T00:43:31.651Z,21.53
2019-02-18T00:45:58.920Z,24.63
2019-02-18T00:48:26.167Z,25.93
2019-02-18T00:50:53.503Z,24.43
2019-02-18T00:53:20.731Z,25.13
2019-02-18T00:55:47.990Z,22.07
2019-02-18T00:58:15.263Z,25.37
2019-02-18T01:00:42.515Z,24.30
2019-02-18T01:03:09.745Z,26.07
2019-02-18T01:05:36.984Z,25.60
2019-02-18T01:08:04.257Z,28.80
2019-02-18T01:10:31.612Z,31.63
2019-02-18T01:12:58.852Z,34.37
2019-02-18T01:15:26.111Z,33.30
2019-02-18T01:17:53.344Z,33.50
2019-02-18T01:20:20.605Z,44.00
2019-02-18T01:22:47.924Z,127.57
2019-02-18T01:25:15.156Z,43.87
2019-02-18T01:27:42.383Z,34.03
2019-02-18T01:30:11.851Z,21.77
2019-02-18T01:32:39.112Z,27.57
2019-02-18T01:35:07.271Z,23.97
2019-02-18T01:37:44.833Z,24.80
2019-02-18T01:40:03.864Z,24.23
2019-02-18T01:42:31.092Z,30.50
2019-02-18T01:44:58.315Z,28.30
2019-02-18T01:47:25.619Z,32.47
2019-02-18T01:49:52.845Z,30.93
2019-02-18T01:52:20.068Z,28.53
2019-02-18T01:54:47.313Z,34.07
2019-02-18T01:57:14.544Z,30.23
2019-02-18T01:59:41.811Z,32.27
2019-02-18T02:02:09.116Z,26.17
2019-02-18T02:04:36.431Z,31.47
2019-02-18T02:07:03.700Z,34.87
2019-02-18T02:09:30.940Z,38.97
2019-02-18T02:11:58.185Z,31.10
2019-02-18T02:14:25.492Z,33.27
2019-02-18T02:16:52.830Z,28.90
2019-02-18T02:19:20.098Z,25.77
2019-02-18T02:21:47.363Z,28.13
2019-02-18T02:24:14.641Z,27.87
2019-02-18T02:26:41.926Z,25.80
2019-02-18T02:29:09.247Z,25.97
2019-02-18T02:31:36.540Z,29.97
2019-02-18T02:34:03.845Z,30.17
2019-02-18T02:36:31.118Z,24.47
2019-02-18T02:38:58.409Z,29.37
2019-02-18T02:41:25.696Z,29.73
2019-02-18T02:43:52.923Z,29.27
2019-02-18T02:46:20.195Z,28.77
2019-02-18T02:48:47.459Z,28.90
2019-02-18T02:51:14.717Z,23.13
2019-02-18T02:53:41.978Z,23.00
2019-02-18T02:56:09.248Z,29.10
2019-02-18T02:58:36.587Z,27.40
2019-02-18T03:01:03.852Z,31.07
2019-02-18T03:03:31.198Z,26.23
2019-02-18T03:05:58.552Z,29.97
2019-02-18T03:08:25.834Z,30.33
2019-02-18T03:10:53.212Z,31.93
2019-02-18T03:13:20.976Z,25.50
2019-02-18T03:15:48.699Z,29.70
2019-02-18T03:18:16.365Z,25.03
2019-02-18T03:20:44.004Z,25.93
2019-02-18T03:23:11.687Z,26.00
2019-02-18T03:25:39.394Z,33.27
2019-02-18T03:28:45.497Z,29.07
2019-02-18T03:31:17.658Z,30.63
2019-02-18T03:33:48.809Z,34.67
2019-02-18T03:36:16.058Z,30.87
2019-02-18T03:38:43.392Z,28.80
2019-02-18T03:41:10.652Z,33.67
2019-02-18T03:43:37.912Z,26.60
2019-02-18T03:46:05.199Z,30.80
2019-02-18T03:48:32.427Z,36.60
2019-02-18T03:50:59.653Z,32.97
2019-02-18T03:53:26.889Z,29.27
2019-02-18T03:55:54.128Z,29.93
2019-02-18T03:58:21.498Z,30.00
2019-02-18T04:00:48.741Z,30.20
2019-02-18T04:03:15.975Z,32.53
2019-02-18T04:05:43.296Z,31.70
2019-02-18T04:08:10.568Z,27.43
2019-02-18T04:10:37.865Z,26.47
2019-02-18T04:13:05.227Z,29.43
2019-02-18T04:15:32.553Z,29.27
2019-02-18T04:17:59.811Z,30.50
2019-02-18T04:20:27.163Z,30.87
2019-02-18T04:22:54.398Z,31.90
2019-02-18T04:25:21.749Z,41.67
2019-02-18T04:27:48.980Z,30.47
2019-02-18T04:30:16.323Z,32.80
2019-02-18T04:32:43.624Z,29.60
2019-02-18T04:35:10.876Z,31.40
2019-02-18T04:37:38.160Z,30.30
2019-02-18T04:40:05.817Z,30.97
2019-02-18T04:42:33.071Z,33.57
2019-02-18T04:45:00.389Z,30.57
2019-02-18T04:47:27.731Z,30.97
2019-02-18T04:49:54.974Z,28.80
2019-02-18T04:52:22.200Z,28.40
2019-02-18T04:54:49.487Z,35.27
2019-02-18T04:57:16.823Z,28.83
2019-02-18T04:59:44.048Z,29.67
2019-02-18T05:02:11.315Z,41.40
2019-02-18T05:04:38.567Z,27.80
2019-02-18T05:07:05.822Z,34.13
2019-02-18T05:09:33.168Z,29.80
2019-02-18T05:12:00.436Z,36.07
2019-02-18T05:14:27.664Z,30.33
2019-02-18T05:16:54.947Z,28.77
2019-02-18T05:19:23.046Z,34.47
2019-02-18T05:21:50.354Z,26.83
2019-02-18T05:24:17.656Z,28.43
2019-02-18T05:26:44.893Z,29.20
2019-02-18T05:29:12.123Z,29.63
2019-02-18T05:31:39.377Z,27.73
2019-02-18T05:34:06.623Z,32.60
2019-02-18T05:36:33.876Z,31.10
2019-02-18T05:39:01.111Z,35.20
2019-02-18T05:41:31.023Z,68.50
2019-02-18T05:43:57.562Z,62.10
2019-02-18T05:46:24.893Z,59.17
2019-02-18T05:48:52.130Z,58.57
2019-02-18T05:51:19.382Z,53.60
2019-02-18T05:53:46.643Z,63.83
2019-02-18T05:56:13.875Z,61.53
2019-02-18T05:58:41.123Z,55.17
2019-02-18T06:01:08.360Z,61.70
2019-02-18T06:03:35.589Z,58.27
2019-02-18T06:06:02.866Z,54.37
2019-02-18T06:08:30.196Z,48.23
2019-02-18T06:10:57.467Z,56.20
2019-02-18T06:13:24.722Z,41.40
2019-02-18T06:15:52.059Z,43.97
2019-02-18T06:18:19.315Z,39.80
2019-02-18T06:20:46.575Z,48.07
2019-02-18T06:23:13.930Z,32.73
2019-02-18T06:25:41.344Z,34.87
2019-02-18T06:28:08.683Z,41.03
2019-02-18T06:30:35.953Z,32.40
2019-02-18T06:33:03.300Z,34.70
2019-02-18T06:35:30.547Z,34.97
2019-02-18T06:37:57.773Z,34.43
2019-02-18T06:40:25.062Z,31.53
2019-02-18T06:42:52.391Z,29.27
2019-02-18T06:45:33.293Z,31.73
2019-02-18T06:48:02.453Z,37.57
2019-02-18T06:50:29.722Z,35.67
2019-02-18T06:52:57.079Z,35.77
2019-02-18T06:55:24.370Z,34.23
2019-02-18T06:58:16.935Z,38.47
2019-02-18T07:01:06.646Z,34.60
2019-02-18T07:03:55.208Z,37.60
2019-02-18T07:06:47.779Z,39.63
2019-02-18T07:09:24.971Z,34.17
2019-02-18T07:12:03.159Z,37.17
2019-02-18T07:14:30.412Z,42.63
2019-02-18T07:16:57.671Z,36.43
2019-02-18T07:19:24.902Z,32.50
2019-02-18T07:21:52.161Z,33.30
2019-02-18T07:24:19.404Z,33.57
2019-02-18T07:26:46.714Z,33.00
2019-02-18T07:29:14.056Z,40.13
2019-02-18T07:31:41.333Z,52.87
2019-02-18T07:34:08.563Z,54.60
2019-02-18T07:36:35.832Z,55.87
2019-02-18T07:39:04.504Z,66.87
2019-02-18T07:41:31.808Z,77.60
2019-02-18T07:43:59.087Z,167.13
2019-02-18T07:46:26.384Z,102.77
2019-02-18T07:48:54.012Z,78.03
2019-02-18T07:51:21.342Z,61.70
2019-02-18T07:53:48.631Z,50.70
2019-02-18T07:56:15.857Z,47.13
2019-02-18T07:58:43.083Z,46.60
2019-02-18T08:01:10.461Z,49.83
2019-02-18T08:03:37.791Z,48.20
2019-02-18T08:06:05.040Z,48.40
2019-02-18T08:08:32.314Z,38.63
2019-02-18T08:10:59.543Z,39.47
2019-02-18T08:13:26.967Z,40.23
2019-02-18T08:15:54.352Z,46.53
2019-02-18T08:18:21.593Z,54.10
2019-02-18T08:20:48.908Z,76.73
2019-02-18T08:23:16.171Z,69.73
2019-02-18T08:25:43.579Z,70.90
2019-02-18T08:28:11.200Z,63.93
2019-02-18T08:30:38.471Z,47.50
2019-02-18T08:33:05.736Z,45.37
2019-02-18T08:35:32.971Z,45.57
2019-02-18T08:38:00.216Z,45.67
2019-02-18T08:40:27.641Z,46.47
2019-02-18T08:42:54.888Z,45.33
2019-02-18T08:45:22.298Z,44.17
2019-02-18T08:47:49.562Z,39.57
2019-02-18T08:50:16.964Z,41.07
2019-02-18T08:52:44.247Z,38.20
2019-02-18T08:55:12.006Z,40.60
2019-02-18T08:57:39.374Z,35.30
2019-02-18T09:00:09.507Z,34.07
2019-02-18T09:02:36.741Z,34.80
2019-02-18T09:05:04.360Z,40.57
2019-02-18T09:07:31.706Z,33.27
2019-02-18T09:09:59.054Z,39.20
2019-02-18T09:12:26.303Z,27.87
2019-02-18T09:14:53.617Z,31.47
2019-02-18T09:17:20.857Z,32.83
2019-02-18T09:19:48.132Z,36.10
2019-02-18T09:22:33.309Z,41.03
2019-02-18T09:25:21.770Z,39.47
2019-02-18T09:27:50.761Z,35.73
2019-02-18T09:30:20.913Z,32.20
2019-02-18T09:32:48.136Z,37.27
2019-02-18T09:35:15.388Z,38.17
2019-02-18T09:37:42.633Z,29.57
2019-02-18T09:40:09.857Z,27.93
2019-02-18T09:42:37.160Z,28.57
2019-02-18T09:45:05.400Z,30.73
2019-02-18T09:47:32.704Z,33.47
2019-02-18T09:50:00.315Z,32.37
2019-02-18T09:52:27.681Z,27.50
2019-02-18T09:55:14.414Z,26.97
2019-02-18T09:57:41.662Z,31.47
2019-02-18T10:00:10.745Z,25.80
2019-02-18T10:02:38.061Z,26.13
2019-02-18T10:05:05.864Z,22.73
2019-02-18T10:07:33.632Z,20.77
2019-02-18T10:10:01.183Z,27.23
2019-02-18T10:12:28.910Z,24.50
2019-02-18T10:14:56.686Z,25.60
2019-02-18T10:17:24.767Z,21.87
2019-02-18T10:22:55.967Z,24.13
2019-02-18T10:25:25.979Z,22.93
2019-02-18T10:27:53.805Z,23.07
2019-02-18T10:30:21.234Z,28.77
2019-02-18T10:32:48.649Z,32.50
2019-02-18T10:35:16.160Z,31.77
2019-02-18T10:37:43.491Z,28.40
2019-02-18T10:40:10.780Z,29.07
2019-02-18T10:42:38.304Z,25.80
2019-02-18T10:45:07.384Z,25.83
2019-02-18T10:47:34.691Z,23.23
2019-02-18T10:50:01.972Z,22.50
2019-02-18T10:52:29.303Z,22.53
2019-02-18T10:54:56.881Z,22.67
2019-02-18T10:57:24.215Z,17.90
2019-02-18T10:59:52.448Z,20.17
2019-02-18T11:02:19.868Z,19.97
2019-02-18T11:04:47.148Z,20.80
2019-02-18T11:07:14.528Z,20.00
2019-02-18T11:09:41.780Z,22.83
2019-02-18T11:12:09.051Z,18.60
2019-02-18T11:14:36.385Z,19.02
2019-02-18T11:17:03.723Z,212.57
2019-02-18T11:19:31.084Z,22.70
2019-02-18T11:21:58.486Z,14.15
2019-02-18T11:24:25.793Z,15.20
2019-02-18T11:26:53.416Z,15.43
2019-02-18T11:29:20.683Z,13.98
2019-02-18T11:31:47.923Z,15.08
2019-02-18T11:34:15.187Z,13.30
2019-02-18T11:36:42.554Z,14.30
2019-02-18T11:39:11.246Z,13.48
2019-02-18T11:41:38.509Z,13.78
2019-02-18T11:44:05.752Z,13.93
2019-02-18T11:46:33.019Z,12.60
2019-02-18T11:49:00.300Z,13.25
2019-02-18T11:51:27.637Z,12.55
2019-02-18T11:53:54.881Z,11.78
2019-02-18T11:56:22.248Z,11.95
2019-02-18T11:58:49.893Z,12.00
2019-02-18T12:01:17.183Z,13.05
2019-02-18T12:03:44.528Z,12.37
2019-02-18T12:06:11.864Z,12.33
2019-02-18T12:08:39.297Z,15.38
2019-02-18T12:11:06.625Z,12.53
2019-02-18T12:13:34.002Z,11.85
2019-02-18T12:16:01.347Z,12.78
2019-02-18T12:18:28.925Z,12.13
2019-02-18T12:20:56.172Z,10.78
2019-02-18T12:23:23.436Z,11.65
2019-02-18T12:25:50.693Z,13.62
2019-02-18T12:28:18.095Z,11.30
2019-02-18T12:30:45.520Z,10.23
2019-02-18T12:33:14.437Z,11.35
2019-02-18T12:35:42.094Z,10.43
2019-02-18T12:38:09.448Z,11.30
2019-02-18T12:40:36.708Z,10.23
2019-02-18T12:43:04.117Z,14.60
2019-02-18T12:45:31.358Z,10.95
2019-02-18T12:47:58.715Z,9.53
2019-02-18T12:50:26.063Z,8.85
2019-02-18T12:52:53.828Z,11.90
2019-02-18T12:55:21.417Z,9.70
2019-02-18T12:57:49.005Z,10.60
2019-02-18T13:00:17.154Z,11.65
2019-02-18T13:02:45.136Z,10.25
2019-02-18T13:05:12.955Z,10.45
2019-02-18T13:07:40.310Z,10.08
2019-02-18T13:10:07.679Z,9.88
2019-02-18T13:12:35.031Z,9.20
2019-02-18T13:15:02.695Z,9.55
2019-02-18T13:17:30.048Z,9.33
2019-02-18T13:19:57.396Z,9.53
2019-02-18T13:22:24.805Z,9.93
2019-02-18T13:24:52.111Z,9.75
2019-02-18T13:27:19.480Z,11.75
2019-02-18T13:29:46.805Z,10.13
2019-02-18T13:32:32.204Z,9.20
2019-02-18T13:34:59.527Z,9.80
2019-02-18T13:37:26.777Z,12.63
2019-02-18T13:39:54.135Z,10.48
2019-02-18T13:42:21.531Z,10.28
2019-02-18T13:44:48.912Z,10.18
2019-02-18T13:47:16.578Z,9.40
2019-02-18T13:49:43.899Z,13.55
2019-02-18T13:52:11.245Z,9.48
2019-02-18T13:54:38.722Z,10.00
2019-02-18T13:57:10.056Z,9.50
2019-02-18T13:59:35.237Z,9.45
2019-02-18T14:02:02.593Z,9.93
2019-02-18T14:04:30.372Z,8.73
2019-02-18T14:06:57.747Z,16.77
2019-02-18T14:09:25.102Z,10.00
2019-02-18T14:11:52.497Z,11.85
2019-02-18T14:14:19.731Z,11.78
2019-02-18T14:16:47.108Z,9.78
2019-02-18T14:19:14.475Z,11.30
2019-02-18T14:21:41.915Z,12.15
2019-02-18T14:24:09.203Z,14.30
2019-02-18T14:26:36.587Z,11.60
2019-02-18T14:29:03.922Z,15.60
2019-02-18T14:31:31.179Z,14.53
2019-02-18T14:33:58.537Z,13.80
2019-02-18T14:36:25.896Z,14.80
2019-02-18T14:38:53.271Z,15.00
2019-02-18T14:41:20.661Z,17.75
2019-02-18T14:43:48.112Z,27.53
2019-02-18T14:46:16.273Z,77.93
2019-02-18T14:48:46.398Z,52.67
2019-02-18T14:51:16.387Z,17.93
2019-02-18T14:53:43.780Z,23.30
2019-02-18T14:56:13.330Z,15.63
2019-02-18T14:58:40.716Z,12.97
2019-02-18T15:01:08.511Z,13.33
2019-02-18T15:03:35.923Z,13.00
2019-02-18T15:06:03.299Z,15.27
2019-02-18T15:08:30.788Z,14.20
2019-02-18T15:10:58.062Z,13.20
2019-02-18T15:13:26.255Z,15.83
2019-02-18T15:15:53.623Z,15.20
2019-02-18T15:18:21.444Z,14.23
2019-02-18T15:20:49.602Z,18.27
2019-02-18T15:23:16.959Z,14.60
2019-02-18T15:25:44.541Z,17.40
2019-02-18T15:28:11.888Z,11.70
2019-02-18T15:30:39.551Z,15.23
2019-02-18T15:33:06.919Z,12.43
2019-02-18T15:35:34.330Z,12.23
2019-02-18T15:38:01.835Z,15.20
2019-02-18T15:40:29.202Z,18.10
2019-02-18T15:42:56.556Z,13.27
2019-02-18T15:45:23.929Z,14.03
2019-02-18T15:47:51.778Z,12.97
2019-02-18T15:50:19.250Z,12.97
2019-02-18T15:52:46.635Z,17.27
2019-02-18T15:55:14.553Z,15.17
2019-02-18T15:57:41.847Z,16.80
2019-02-18T16:00:12.910Z,20.17
2019-02-18T16:02:40.276Z,14.57
2019-02-18T16:05:07.895Z,16.37
2019-02-18T16:07:36.703Z,15.77
2019-02-18T16:10:05.480Z,41.87
2019-02-18T16:12:32.878Z,67.23
2019-02-18T16:15:00.306Z,107.57
2019-02-18T16:17:27.646Z,83.10
2019-02-18T16:19:55.011Z,85.33
2019-02-18T16:22:22.612Z,67.87
2019-02-18T16:24:50.049Z,68.73
2019-02-18T16:27:17.426Z,658.67
2019-02-18T16:29:44.807Z,398.50
2019-02-18T16:32:12.198Z,61.60
2019-02-18T16:34:39.555Z,39.63
2019-02-18T16:37:07.347Z,25.33
2019-02-18T16:39:35.056Z,21.73
2019-02-18T16:42:02.495Z,19.73
2019-02-18T16:44:29.851Z,20.27
2019-02-18T16:46:57.199Z,22.93
2019-02-18T16:49:24.497Z,15.00
2019-02-18T16:51:51.743Z,27.13
2019-02-18T16:54:19.086Z,20.73
2019-02-18T16:56:46.467Z,16.33
2019-02-18T16:59:13.861Z,18.57
2019-02-18T17:01:41.180Z,10.90
2019-02-18T17:04:08.507Z,18.50
2019-02-18T17:06:35.888Z,16.27
2019-02-18T17:09:09.572Z,11.10
2019-02-18T17:11:37.232Z,10.97
2019-02-18T17:14:24.057Z,13.40
2019-02-18T17:16:51.359Z,15.20
2019-02-18T17:19:18.780Z,16.23
2019-02-18T17:21:46.135Z,13.33
2019-02-18T17:24:13.479Z,15.13
2019-02-18T17:26:40.888Z,16.73
2019-02-18T17:29:08.290Z,16.67
2019-02-18T17:31:35.646Z,18.63
2019-02-18T17:34:03.003Z,20.50
2019-02-18T17:36:30.350Z,17.30
2019-02-18T17:38:57.712Z,18.03
2019-02-18T17:41:25.137Z,20.13
2019-02-18T17:43:52.747Z,16.57
2019-02-18T17:46:20.130Z,20.10
2019-02-18T17:48:47.488Z,23.03
2019-02-18T17:51:14.890Z,18.77
2019-02-18T17:53:42.243Z,25.50
2019-02-18T17:56:09.523Z,27.10
2019-02-18T17:58:36.864Z,24.60
2019-02-18T18:01:04.610Z,22.50
2019-02-18T18:03:33.250Z,22.03
2019-02-18T18:06:00.628Z,26.60
2019-02-18T18:08:27.959Z,19.27
2019-02-18T18:10:55.392Z,26.30
2019-02-18T18:13:25.107Z,21.50
2019-02-18T18:15:51.894Z,22.97
2019-02-18T18:18:19.487Z,22.53
2019-02-18T18:20:46.831Z,20.33
2019-02-18T18:23:14.251Z,25.00
2019-02-18T18:25:41.571Z,41.43
2019-02-18T18:28:08.963Z,30.23
2019-02-18T18:30:36.351Z,37.17
2019-02-18T18:33:03.621Z,40.93
2019-02-18T18:35:31.358Z,52.27
2019-02-18T18:37:58.775Z,50.40
2019-02-18T18:40:26.031Z,51.93
2019-02-18T18:42:53.283Z,50.20
2019-02-18T18:45:20.644Z,128.43
2019-02-18T18:47:48.023Z,108.93
2019-02-18T18:50:16.135Z,108.10
2019-02-18T18:52:43.779Z,362.37
2019-02-18T18:55:11.058Z,289.67
2019-02-18T18:57:38.412Z,133.07
2019-02-18T19:00:08.273Z,107.87
2019-02-18T19:02:35.651Z,185.70
2019-02-18T19:05:03.444Z,126.60
2019-02-18T19:07:30.786Z,114.40
2019-02-18T19:09:58.024Z,93.20
2019-02-18T19:12:44.806Z,70.70
2019-02-18T19:15:12.180Z,44.27
2019-02-18T19:17:39.574Z,56.00
2019-02-18T19:20:07.363Z,45.40
2019-02-18T19:22:34.681Z,49.87
2019-02-18T19:25:01.931Z,37.17
2019-02-18T19:27:29.217Z,40.07
2019-02-18T19:29:56.575Z,36.87
2019-02-18T19:32:23.839Z,31.07
2019-02-18T19:34:51.110Z,26.13
2019-02-18T19:37:18.876Z,35.17
2019-02-18T19:39:46.128Z,26.43
2019-02-18T19:42:13.363Z,23.73
2019-02-18T19:44:40.663Z,29.83
2019-02-18T19:47:07.984Z,41.60
2019-02-18T19:49:35.321Z,37.23
2019-02-18T19:52:02.560Z,47.77
2019-02-18T19:54:30.328Z,42.60
2019-02-18T19:56:57.651Z,39.90
2019-02-18T19:59:24.903Z,42.77
2019-02-18T20:01:52.147Z,39.50
2019-02-18T20:04:19.481Z,35.43
2019-02-18T20:06:46.791Z,35.23
2019-02-18T20:09:15.159Z,27.30
2019-02-18T20:11:42.866Z,31.47
2019-02-18T20:14:10.088Z,30.53
2019-02-18T20:16:37.352Z,28.80
2019-02-18T20:19:04.770Z,27.63
2019-02-18T20:21:32.099Z,29.17
2019-02-18T20:23:59.388Z,25.57
2019-02-18T20:26:26.754Z,27.70
2019-02-18T20:28:54.387Z,28.40
2019-02-18T20:31:21.698Z,21.40
2019-02-18T20:33:48.944Z,28.37
2019-02-18T20:36:16.284Z,28.10
2019-02-18T20:38:43.660Z,29.43
2019-02-18T20:41:10.996Z,27.37
2019-02-18T20:43:38.380Z,27.53
2019-02-18T20:46:06.258Z,32.33
2019-02-18T20:48:33.491Z,38.20
2019-02-18T20:51:00.823Z,27.27
2019-02-18T20:53:28.072Z,30.10
2019-02-18T20:55:55.387Z,28.83
2019-02-18T20:58:22.725Z,30.27
2019-02-18T21:00:50.171Z,28.60
2019-02-18T21:03:17.808Z,33.27
2019-02-18T21:05:45.067Z,32.67
2019-02-18T21:08:12.312Z,36.23
2019-02-18T21:10:39.592Z,34.93
2019-02-18T21:13:06.963Z,54.07
2019-02-18T21:15:34.231Z,42.63
2019-02-18T21:18:01.509Z,42.67
2019-02-18T21:20:29.170Z,26.23
2019-02-18T21:22:56.528Z,26.63
2019-02-18T21:25:23.851Z,26.47
2019-02-18T21:27:51.091Z,28.03
2019-02-18T21:30:18.392Z,22.80
2019-02-18T21:32:45.750Z,19.50
2019-02-18T21:35:13.099Z,20.47
2019-02-18T21:37:40.823Z,25.67
2019-02-18T21:40:08.248Z,21.63
2019-02-18T21:42:35.497Z,28.10
2019-02-18T21:45:03.099Z,20.40
2019-02-18T21:47:30.379Z,23.53
2019-02-18T21:49:57.736Z,24.63
2019-02-18T21:52:24.980Z,26.77
2019-02-18T21:54:52.652Z,25.93
2019-02-18T21:57:20.004Z,23.80
2019-02-18T21:59:47.235Z,24.20
2019-02-18T22:02:14.501Z,22.07
2019-02-18T22:04:41.792Z,21.00
2019-02-18T22:07:09.033Z,19.37
2019-02-18T22:09:36.274Z,22.63
2019-02-18T22:12:03.628Z,23.17
2019-02-18T22:14:33.651Z,21.67
2019-02-18T22:17:00.508Z,18.47
2019-02-18T22:19:27.751Z,20.03
2019-02-18T22:21:55.018Z,22.40
2019-02-18T22:24:22.379Z,17.83
2019-02-18T22:26:49.663Z,21.97
2019-02-18T22:29:17.004Z,18.07
2019-02-18T22:31:44.796Z,17.63
2019-02-18T22:34:12.092Z,22.27
2019-02-18T22:36:39.352Z,36.03
2019-02-18T22:39:07.803Z,27.87
2019-02-18T22:41:35.067Z,28.60
2019-02-18T22:44:02.388Z,27.17
2019-02-18T22:46:29.758Z,33.37
2019-02-18T22:48:57.095Z,38.27
2019-02-18T22:51:24.912Z,39.20
2019-02-18T22:53:52.276Z,28.20
2019-02-18T22:56:19.667Z,27.90
2019-02-18T22:58:46.999Z,22.83
2019-02-18T23:01:14.371Z,42.07
2019-02-18T23:03:41.696Z,69.40
2019-02-18T23:06:08.964Z,61.70
2019-02-18T23:08:36.304Z,64.63
2019-02-18T23:11:04.882Z,53.40
2019-02-18T23:13:32.203Z,39.13
2019-02-18T23:15:59.450Z,33.87
2019-02-18T23:18:26.969Z,28.03
2019-02-18T23:20:54.284Z,25.87
2019-02-18T23:23:21.699Z,30.27
2019-02-18T23:25:48.987Z,26.40
2019-02-18T23:28:16.745Z,23.53
2019-02-18T23:30:44.106Z,25.30
2019-02-18T23:33:11.363Z,23.17
2019-02-18T23:35:39.018Z,24.00
2019-02-18T23:38:06.467Z,19.90
2019-02-18T23:40:33.721Z,19.03
2019-02-18T23:43:00.971Z,32.03
2019-02-18T23:45:28.228Z,20.30
2019-02-18T23:47:55.508Z,19.03
2019-02-18T23:50:22.752Z,18.47
2019-02-18T23:52:50.010Z,20.53
2019-02-18T23:55:17.301Z,20.20
2019-02-18T23:57:44.547Z,22.63
